Werte bis 5 Uhr SommerzeitDiagramme Gross Umstadt: Tagesdaten Monatsdaten WindroseCSV-Datei: Gross Umstadt20.csv

Wetterdaten 2020 Station: Gross Umstadt
Temperaturen in °C relative Nieder- Global- Wind Wind Wind- Sonnen-
Datum Boden Boden Luft Luft Luft Luft Feuchte schlag strahlung max richtung schein
20 cm 5 cm 20 cm 2 m 2 m max 2 m min % mm W/m2*d m/s m/s ° h

07.08.2020 22,6 21,4 15,1 17,6 18,4 16,2 69 0,0 0 0,1 0,7 --- ---
06.08.2020 21,6 22,1 22,5 22,7 32,5 11,5 53 0,0 6842 0,5 3,6 --- 9,0
05.08.2020 21,1 21,1 21,0 20,7 30,1 12,4 54 0,0 6509 0,7 4,1 --- 9,1
04.08.2020 21,2 20,7 19,1 18,3 26,0 11,8 63 0,0 4939 1,0 6,3 --- 8,1
03.08.2020 21,8 20,8 19,6 18,8 23,4 14,9 69 0,0 2836 1,1 5,7 --- 6,9
02.08.2020 22,5 22,3 22,3 21,7 27,7 17,3 70 1,3 3537 1,0 5,4 --- 7,0
01.08.2020 22,8 23,3 25,0 24,8 31,9 16,8 55 0,0 4087 0,9 6,2 --- 7,8
31.07.2020 22,1 22,9 24,1 24,1 35,2 11,9 50 0,0 7161 0,9 6,0 --- 9,3
30.07.2020 21,6 21,8 21,5 20,7 31,7 9,9 54 0,0 7168 1,0 8,6 --- 9,3
29.07.2020 21,5 21,6 20,9 19,5 27,5 10,0 53 0,0 7330 1,3 8,7 --- 9,3
28.07.2020 21,8 21,9 24,1 23,5 28,7 16,4 49 0,0 4292 2,4 13,4 --- 8,6
27.07.2020 21,4 21,2 22,2 22,0 30,9 12,8 62 0,0 5190 0,8 4,6 --- 9,6
26.07.2020 22,0 21,9 21,2 20,7 26,6 15,7 69 4,3 4551 1,4 8,4 --- 8,8
25.07.2020 21,9 22,4 23,6 21,9 28,9 14,1 55 0,0 5712 1,0 6,8 --- 8,9
24.07.2020 21,5 22,0 23,0 21,7 29,3 15,0 49 0,0 5163 1,3 8,1 --- 8,8
23.07.2020 21,0 21,2 19,6 19,2 28,0 9,6 55 0,0 6923 0,8 5,7 --- 8,9
22.07.2020 20,9 20,9 19,1 18,6 27,5 8,0 52 0,0 7257 1,0 5,7 --- 9,2
21.07.2020 21,0 21,3 19,9 19,6 27,4 11,7 54 0,0 7627 1,3 9,1 --- 10,1
20.07.2020 20,9 21,1 21,1 21,1 28,3 13,9 60 0,0 5933 1,5 6,7 --- 9,2
19.07.2020 20,5 20,8 21,1 21,2 30,1 10,8 60 0,0 6106 0,7 6,5 --- 9,3
18.07.2020 20,1 20,3 19,9 20,0 28,9 11,6 64 0,0 6101 0,5 8,2 --- 8,8
17.07.2020 19,4 19,5 19,0 18,4 25,8 14,2 75 0,5 5476 1,0 6,4 --- 7,8
16.07.2020 19,7 18,3 15,8 15,1 17,8 13,4 92 2,0 1439 0,5 4,5 --- 3,6
15.07.2020 20,6 20,0 18,3 17,0 22,3 14,0 80 6,0 3631 1,0 5,3 --- 8,4
14.07.2020 20,5 20,8 20,7 20,4 29,5 10,6 53 0,1 5674 0,8 7,3 --- 8,5
13.07.2020 20,0 20,1 18,8 19,2 29,0 8,5 55 0,0 7444 0,5 4,8 --- 9,6
12.07.2020 19,8 19,3 16,8 16,7 26,5 6,9 61 0,0 7227 0,9 5,4 --- 9,6
11.07.2020 20,4 19,9 17,1 16,8 23,1 10,9 65 1,3 5901 1,2 5,5 --- 8,6
10.07.2020 20,7 20,8 22,1 21,2 25,9 16,8 60 0,0 4246 2,4 10,4 --- 9,0
09.07.2020 19,7 20,4 23,1 21,9 30,6 15,0 69 0,1 6464 1,4 8,4 --- 9,6
08.07.2020 19,9 18,6 15,8 15,6 18,6 13,9 79 3,8 1480 0,6 5,1 --- 4,0
07.07.2020 20,3 19,7 16,8 16,1 24,3 7,5 60 0,0 6196 0,8 5,8 --- 9,3
06.07.2020 21,1 21,1 19,8 18,3 22,0 13,0 56 0,0 5470 2,8 11,0 --- 8,2
05.07.2020 21,0 21,2 23,7 22,9 26,9 20,5 61 0,0 3922 2,7 9,9 --- 8,2
04.07.2020 20,7 20,6 20,5 19,8 27,2 10,5 59 0,0 5762 1,6 8,3 --- 9,0
03.07.2020 21,0 21,0 19,0 18,4 25,3 11,4 64 0,0 5956 1,2 7,9 --- 9,1
02.07.2020 21,3 21,8 21,5 20,5 26,5 14,2 70 0,4 5067 1,5 8,9 --- 7,9
01.07.2020 20,3 21,0 22,8 21,7 29,6 13,6 66 0,0 7239 1,6 9,9 --- 9,9
30.06.2020 20,1 19,3 18,1 17,7 23,4 12,1 63 0,0 5112 1,5 8,7 --- 9,7
29.06.2020 20,7 20,1 18,5 17,7 25,0 12,8 73 2,2 5462 1,2 9,1 --- 9,1
28.06.2020 21,6 21,5 20,3 19,5 24,8 13,7 76 0,7 3862 1,5 9,2 --- 8,2
27.06.2020 21,6 22,3 23,3 22,8 28,7 16,1 72 0,1 5771 1,0 8,7 --- 9,5
26.06.2020 20,9 21,5 21,4 21,5 31,6 12,8 68 2,3 6972 0,7 9,5 --- 8,0
25.06.2020 20,9 20,8 20,2 21,0 27,6 13,6 64 0,0 5533 0,6 4,4 --- 9,7
24.06.2020 20,7 21,1 20,5 21,1 28,8 11,5 58 0,0 7909 0,7 5,2 --- 9,6
23.06.2020 20,4 20,8 19,6 19,9 27,7 11,3 66 0,0 7953 0,8 6,2 --- 9,8
22.06.2020 20,3 20,7 20,7 20,0 25,5 15,3 71 0,0 5627 1,2 5,4 --- 9,1
21.06.2020 19,8 20,3 20,0 19,3 26,7 10,9 69 0,0 7485 0,6 5,1 --- 9,3
20.06.2020 19,5 19,7 18,8 18,0 24,5 12,3 77 0,0 5891 0,9 6,7 --- 9,2
19.06.2020 19,5 19,2 18,6 17,7 23,7 11,8 77 2,5 5227 1,1 6,4 --- 9,0
18.06.2020 19,4 19,8 19,9 18,1 24,5 13,0 75 0,1 7059 1,3 5,7 --- 8,9
17.06.2020 18,9 19,5 18,3 17,7 25,9 13,9 90 4,4 4705 0,8 7,8 --- 6,9
16.06.2020 18,4 18,4 17,6 17,1 20,7 14,4 91 4,0 3052 0,3 2,8 --- 8,5
15.06.2020 18,5 18,0 17,7 17,1 19,5 15,4 90 2,1 1966 1,2 4,6 --- 6,8
14.06.2020 19,2 19,0 18,2 17,7 20,0 14,8 85 1,2 2354 1,7 6,8 --- 7,9
13.06.2020 18,8 19,9 22,3 21,0 27,3 14,6 66 5,0 6654 1,4 4,9 --- 9,7
12.06.2020 17,2 17,9 19,5 19,6 29,3 8,9 71 0,0 7615 0,6 4,3 --- 9,7
11.06.2020 16,8 16,3 15,1 14,8 18,7 12,0 89 2,2 2359 0,5 3,4 --- 7,0
10.06.2020 16,7 16,1 15,1 14,9 18,6 12,4 85 0,8 2836 1,4 5,8 --- 6,2
09.06.2020 16,8 15,8 13,9 13,6 20,9 8,3 83 0,0 2714 0,8 5,3 --- 6,9
08.06.2020 16,9 16,7 15,1 14,8 21,7 8,7 71 0,0 4863 0,5 3,6 --- 10,4
07.06.2020 16,8 16,2 15,9 14,7 18,9 9,9 74 0,0 4368 1,4 6,9 --- 9,2
06.06.2020 16,6 15,4 13,5 12,7 17,8 9,0 85 9,2 4607 1,3 8,7 --- 7,6
05.06.2020 17,8 16,3 12,7 12,1 15,9 10,2 83 4,0 3441 2,2 8,6 --- 6,3
04.06.2020 19,3 18,5 15,3 14,8 18,5 11,9 91 12,5 1657 0,8 5,2 --- 5,1
03.06.2020 19,6 20,8 19,8 19,4 30,1 11,9 62 0,2 6605 0,7 7,8 --- 8,2
02.06.2020 18,8 19,9 19,8 20,0 29,0 9,8 53 0,0 7587 0,5 5,7 --- 9,6
01.06.2020 17,9 18,6 17,8 18,3 27,8 7,3 56 0,0 7893 0,6 5,2 --- 9,7
31.05.2020 17,4 17,8 15,2 15,5 22,6 6,7 55 0,0 7422 0,8 7,2 --- 10,2
30.05.2020 17,3 17,3 14,2 15,0 21,7 6,6 52 0,0 6316 1,2 9,2 --- 8,7
29.05.2020 17,2 17,3 14,4 15,2 24,0 5,0 53 0,0 7703 0,8 6,3 --- 9,5
28.05.2020 17,1 17,9 16,2 16,3 22,9 10,5 56 0,0 7904 1,8 8,4 --- 10,4
27.05.2020 15,9 16,5 15,4 15,6 24,0 5,8 64 0,0 7649 0,7 6,7 --- 9,7
26.05.2020 15,5 15,1 13,5 13,6 21,9 5,6 70 0,0 6308 0,7 5,6 --- 9,1
25.05.2020 15,8 15,2 15,2 15,0 19,9 11,0 73 0,1 3329 1,7 8,3 --- 8,1
24.05.2020 15,8 15,1 14,3 13,3 18,6 7,6 72 0,0 4921 2,4 9,2 --- 8,0
23.05.2020 16,9 16,4 14,0 13,9 18,3 10,7 86 2,8 1945 1,6 6,8 --- 5,5
22.05.2020 16,9 17,3 19,5 20,1 25,7 13,0 69 0,1 3195 0,7 8,1 --- 9,2
21.05.2020 16,7 17,4 18,4 18,6 27,1 10,2 67 0,0 7259 0,6 9,0 --- 9,4
20.05.2020 16,0 17,0 18,6 18,4 24,5 12,4 65 0,0 6951 1,1 5,9 --- 9,8
19.05.2020 15,1 15,7 17,4 17,7 25,3 8,7 61 0,0 7023 1,0 4,7 --- 9,1
18.05.2020 14,3 14,5 15,6 15,3 23,7 5,3 63 0,0 7247 0,8 7,1 --- 9,3
17.05.2020 13,8 13,8 13,1 12,6 20,5 5,2 65 0,0 7353 1,0 5,7 --- 9,4
16.05.2020 13,4 13,2 12,0 11,5 20,4 2,5 64 0,0 7496 0,8 5,0 --- 8,9
15.05.2020 13,2 13,0 11,5 11,1 17,9 5,6 63 0,0 6752 1,6 6,5 --- 9,3
14.05.2020 12,8 12,5 10,2 9,8 15,8 4,0 71 0,0 5889 2,0 10,0 --- 8,6
13.05.2020 12,5 11,7 9,7 9,3 16,2 1,4 71 0,0 4310 0,8 5,1 --- 8,7
12.05.2020 12,2 11,1 8,2 6,9 14,3 -0,5 75 0,0 7457 0,7 4,3 --- 9,5
11.05.2020 14,3 12,2 6,9 6,8 14,2 3,7 99 38,7 930 2,9 10,3 --- 0,8
10.05.2020 14,6 15,5 18,0 16,8 25,4 10,5 79 0,6 5380 0,9 8,0 --- 8,0
09.05.2020 14,3 14,1 13,7 14,0 18,5 9,1 77 0,0 2188 0,6 4,3 --- 7,3
08.05.2020 13,9 14,7 15,2 15,5 24,6 6,8 61 0,0 6123 0,6 3,9 --- 8,4
07.05.2020 13,1 13,2 12,8 12,7 22,5 2,9 63 0,0 7219 0,7 4,1 --- 9,2
06.05.2020 12,7 12,3 10,2 9,9 18,1 1,2 63 0,0 7357 0,9 6,5 --- 9,3
05.05.2020 12,9 12,3 9,6 9,4 16,3 3,2 71 0,0 6410 1,4 6,7 --- 10,0
04.05.2020 13,1 13,1 12,5 12,3 18,5 7,0 81 2,5 2847 1,4 8,6 --- 6,9
03.05.2020 12,3 12,1 12,4 11,6 19,1 4,9 73 0,0 4992 0,8 5,2 --- 8,6
02.05.2020 12,5 11,3 9,6 9,1 13,4 6,5 85 6,7 4093 2,6 15,3 --- 7,7
01.05.2020 12,9 12,1 10,7 10,3 14,0 6,6 85 14,0 3690 2,3 13,2 --- 7,9
30.04.2020 13,5 13,0 11,9 11,8 15,1 10,1 85 4,5 2159 1,9 9,4 --- 5,5
29.04.2020 13,5 13,7 14,8 14,1 19,3 10,5 69 0,6 4585 2,2 9,6 --- 7,9
28.04.2020 13,7 13,3 13,3 13,4 19,2 8,1 69 0,7 2713 1,6 10,4 --- 6,8
27.04.2020 13,6 14,1 14,7 14,3 22,8 4,5 55 0,0 6444 1,3 8,0 --- 9,0
26.04.2020 13,2 13,4 12,5 12,6 21,8 3,1 57 0,0 6779 0,7 5,1 --- 8,9
25.04.2020 13,4 13,5 11,1 11,4 18,4 5,3 58 0,0 6903 1,3 7,0 --- 8,9
24.04.2020 13,3 13,7 15,0 14,5 23,1 5,3 53 0,0 5891 1,6 8,4 --- 8,9
23.04.2020 13,1 13,4 13,2 14,3 23,7 5,3 48 0,0 6683 0,5 4,5 --- 8,8
22.04.2020 12,9 13,3 14,8 15,6 23,6 6,8 36 0,0 6740 1,2 10,8 --- 8,9
21.04.2020 12,6 12,7 14,3 14,8 22,2 7,8 34 0,0 6731 1,6 7,7 --- 8,9
20.04.2020 12,6 12,4 13,0 13,5 20,2 5,9 38 0,0 6652 1,5 10,1 --- 9,0
19.04.2020 12,9 13,1 13,2 13,5 20,5 7,9 73 0,0 4274 0,9 8,5 --- 7,3
18.04.2020 12,6 13,6 16,1 16,1 24,8 9,0 67 0,0 3934 0,9 8,8 --- 7,2
17.04.2020 11,7 13,0 15,6 15,8 25,1 6,3 59 0,0 6009 0,7 9,3 --- 8,5
16.04.2020 10,5 11,1 13,3 13,5 24,1 1,7 54 0,0 5757 1,1 7,0 --- 8,5
15.04.2020 9,7 9,1 8,4 8,4 19,1 -1,8 57 0,0 5752 0,7 4,2 --- 8,5
14.04.2020 10,2 8,3 4,5 4,4 11,7 -2,5 61 0,0 4832 1,1 7,1 --- 8,7
13.04.2020 12,0 10,8 8,3 9,0 13,6 2,2 69 1,9 2361 1,9 11,0 --- 6,5
12.04.2020 12,2 12,9 14,8 15,2 24,5 6,1 52 0,0 5103 0,9 7,4 --- 8,0
11.04.2020 11,9 12,4 13,1 13,6 24,0 4,1 52 0,0 6174 0,8 4,4 --- 8,7
10.04.2020 11,8 12,7 14,4 15,1 23,1 6,3 57 0,0 6013 1,1 6,5 --- 8,7
09.04.2020 11,3 12,3 15,2 15,6 24,2 7,0 53 0,0 5447 0,9 6,4 --- 8,4
08.04.2020 10,6 11,6 14,4 15,3 24,3 6,7 55 0,0 5591 0,8 4,6 --- 8,5
07.04.2020 9,9 10,8 13,4 14,2 24,2 4,5 55 0,0 5596 1,2 6,9 --- 8,6
06.04.2020 9,0 9,7 13,0 13,3 22,9 3,2 49 0,0 5704 1,1 7,4 --- 8,5
05.04.2020 8,2 8,5 11,3 12,0 19,6 4,4 47 0,0 5793 1,5 4,8 --- 8,5
04.04.2020 7,6 7,6 7,7 7,8 16,3 -0,8 61 0,0 5672 1,0 5,6 --- 8,4
03.04.2020 7,2 6,6 7,8 7,6 12,8 1,9 62 0,0 3037 2,1 9,2 --- 5,5
02.04.2020 6,9 6,2 5,6 5,3 13,4 -4,1 55 0,0 5540 1,1 7,0 --- 8,3
01.04.2020 6,8 5,7 3,5 3,5 12,1 -4,3 50 0,0 5638 0,8 4,9 --- 8,4
31.03.2020 6,9 6,3 5,4 4,8 10,3 -1,4 54 0,0 5397 1,0 7,0 --- 7,8
30.03.2020 6,6 5,2 3,2 2,8 8,3 -3,4 51 0,0 5570 1,7 7,6 --- 8,0
29.03.2020 7,6 6,0 4,5 4,6 7,5 1,1 69 0,1 1447 3,2 10,7 --- 4,7
28.03.2020 7,5 7,6 9,5 10,0 18,5 2,0 60 0,0 4868 1,8 8,1 --- 8,2
27.03.2020 6,5 6,2 8,3 8,8 18,1 -0,6 57 0,0 4933 1,0 5,5 --- 8,2
26.03.2020 6,0 4,7 5,4 5,5 11,1 0,2 47 0,0 4612 1,6 5,8 --- 8,1
25.03.2020 5,9 4,0 3,2 3,7 10,1 -3,6 39 0,0 5250 1,5 7,5 --- 8,3
24.03.2020 6,3 4,2 2,6 3,1 9,6 -2,4 41 0,0 5255 1,4 5,8 --- 8,3
23.03.2020 6,9 4,5 2,7 2,6 8,1 -1,8 44 0,0 5216 1,8 7,7 --- 8,3
22.03.2020 7,8 5,6 4,2 4,1 9,4 -0,1 48 0,0 5215 1,9 6,7 --- 8,3
21.03.2020 9,2 7,6 5,3 5,4 7,4 3,2 76 2,6 1274 2,3 8,7 --- 4,4
20.03.2020 9,6 9,8 10,9 10,8 16,3 6,9 78 0,0 3457 2,0 9,0 --- 7,1
19.03.2020 9,2 9,4 11,0 11,1 19,2 4,1 76 0,0 4312 0,9 4,4 --- 7,6
18.03.2020 8,8 9,1 11,3 10,8 17,4 4,9 81 0,0 3750 1,1 5,7 --- 7,8
17.03.2020 8,4 8,8 12,1 11,9 16,3 7,6 74 0,0 2571 1,3 4,4 --- 6,6
16.03.2020 7,4 7,2 10,2 10,2 17,6 1,7 69 0,0 3912 1,1 5,3 --- 7,6
15.03.2020 6,9 6,2 7,7 8,3 14,7 3,0 67 0,0 4143 1,7 6,4 --- 7,8
14.03.2020 7,0 5,7 4,8 4,9 10,6 0,4 87 1,0 2057 0,9 6,0 --- 6,0
13.03.2020 7,8 6,3 6,6 6,7 9,5 3,9 71 0,1 1871 4,7 13,3 --- 6,1
12.03.2020 8,4 8,6 10,7 11,1 13,9 7,0 77 1,8 1706 5,3 17,1 --- 5,3
11.03.2020 7,4 8,2 12,5 12,9 14,4 11,1 83 0,1 545 5,5 13,3 --- 0,3
10.03.2020 6,4 5,5 7,0 7,4 11,7 4,3 90 4,2 574 4,5 13,3 --- 0,2
09.03.2020 6,5 6,2 7,6 7,5 10,9 5,0 84 2,0 2237 2,7 10,4 --- 4,4
08.03.2020 5,8 5,1 7,2 7,5 10,7 4,1 73 0,0 2102 3,1 9,9 --- 6,0
07.03.2020 5,8 4,7 5,3 5,3 8,3 3,4 80 0,2 1561 2,8 8,5 --- 5,0
06.03.2020 6,0 5,1 5,4 5,8 8,9 4,4 91 12,6 644 4,6 13,9 --- 1,7
05.03.2020 5,7 4,7 5,6 5,7 8,3 3,7 89 6,9 743 1,8 5,5 --- 1,5
04.03.2020 5,6 4,2 4,6 4,4 8,7 0,8 86 0,2 2276 2,5 8,8 --- 5,2
03.03.2020 6,2 5,2 5,0 4,8 7,1 1,7 85 3,8 2359 3,4 11,0 --- 5,4
02.03.2020 6,1 5,2 5,9 6,1 10,1 1,8 83 6,4 1824 2,7 20,1 --- 5,6
01.03.2020 6,1 5,6 7,9 8,2 11,5 5,9 74 2,2 2291 4,1 14,5 --- 6,3
29.02.2020 5,3 5,1 8,4 9,0 14,9 5,1 76 3,6 1647 3,9 19,2 --- 5,4
28.02.2020 4,7 3,1 3,5 3,5 6,8 0,7 82 7,4 2276 3,2 9,3 --- 6,3
27.02.2020 5,4 3,4 2,3 2,3 5,2 -0,1 90 5,7 778 3,0 7,7 --- 2,2
26.02.2020 6,3 4,3 3,0 3,3 5,3 0,5 86 5,2 927 4,8 13,2 --- 1,8
25.02.2020 7,1 6,6 7,6 8,0 10,7 5,0 87 11,8 1079 4,7 12,2 --- 3,0
24.02.2020 6,8 6,2 7,3 7,7 11,8 4,8 84 0,4 668 3,2 13,8 --- 0,6
23.02.2020 6,3 6,5 9,7 10,1 12,7 7,2 85 7,1 396 7,3 20,7 --- 0,4
22.02.2020 5,5 4,4 6,9 7,5 10,5 3,5 68 0,0 1741 4,1 12,8 --- 4,6
21.02.2020 5,8 4,6 5,6 5,5 7,7 2,1 75 3,5 2329 4,5 14,6 --- 5,8
20.02.2020 5,7 4,6 6,6 6,7 9,5 3,0 77 0,5 1033 3,7 12,6 --- 3,4
19.02.2020 6,0 4,8 5,6 5,6 7,6 2,8 76 0,4 1709 4,2 13,0 --- 3,7
18.02.2020 6,4 5,3 6,5 6,8 7,6 5,8 75 0,2 1029 4,9 12,9 --- 2,9
17.02.2020 6,7 6,7 8,5 9,1 16,7 7,5 82 3,5 398 4,0 18,6 --- ---
16.02.2020 5,6 5,8 12,6 13,7 17,6 9,2 52 0,0 1194 4,4 18,8 --- 3,7
15.02.2020 4,9 4,2 6,0 6,9 11,4 2,6 83 0,0 2141 1,9 6,6 --- 5,4
14.02.2020 4,5 3,9 6,0 6,3 7,9 5,3 85 0,3 916 3,4 10,6 --- 3,1
13.02.2020 4,1 2,3 3,0 3,6 7,0 0,9 90 5,1 467 3,1 12,7 --- 0,1
12.02.2020 4,6 2,7 2,8 3,4 5,4 1,6 83 1,7 698 5,1 14,8 --- 1,7
11.02.2020 5,3 3,8 4,7 5,0 7,4 2,4 72 1,1 1612 8,4 28,0 --- 3,7
10.02.2020 5,6 5,7 8,3 9,0 13,9 5,5 75 19,4 1173 9,2 23,3 --- 2,9
09.02.2020 3,9 3,5 8,1 8,9 13,4 1,0 71 0,0 1811 4,8 17,7 --- 4,3
08.02.2020 3,4 1,5 1,7 2,3 7,0 -2,1 87 0,0 1475 0,7 2,4 --- 5,0
07.02.2020 3,9 1,3 -0,5 0,8 6,1 -3,4 86 0,1 1969 1,0 6,2 --- 4,8
06.02.2020 4,8 2,2 -0,1 0,5 5,5 -2,8 90 0,0 1867 0,8 4,7 --- 5,1
05.02.2020 6,0 3,9 2,6 3,2 6,9 -0,8 80 0,0 1849 1,9 6,5 --- 4,6
04.02.2020 7,1 5,7 4,5 4,7 7,5 1,1 90 25,8 955 3,9 12,5 --- 3,1
03.02.2020 7,4 7,3 9,3 9,8 11,5 7,4 85 9,9 742 3,9 11,6 --- 2,0
02.02.2020 7,1 6,9 9,2 9,9 13,6 5,6 87 3,8 516 4,0 12,3 --- 0,4
01.02.2020 6,8 7,5 10,5 11,1 12,5 6,3 90 21,5 233 4,4 22,7 --- ---
31.01.2020 5,4 6,4 11,5 11,9 13,6 8,4 87 0,0 772 4,9 12,3 --- 1,8
30.01.2020 4,1 3,3 6,0 6,4 9,0 2,4 85 0,4 938 3,2 9,0 --- 2,6
29.01.2020 3,9 2,5 3,3 3,7 6,2 1,8 85 2,0 646 3,9 11,4 --- 1,5
28.01.2020 4,3 3,6 4,4 4,9 7,5 1,8 88 6,5 511 5,8 17,6 --- 1,2
27.01.2020 3,5 3,0 4,9 5,3 8,6 -0,1 93 4,2 419 2,7 9,6 --- 0,4
26.01.2020 3,0 1,9 1,9 1,3 4,5 -0,9 99 0,0 890 0,6 3,0 --- 3,0
25.01.2020 2,6 1,3 0,9 0,4 2,2 -0,9 99 0,0 581 0,6 2,6 --- 1,2
24.01.2020 2,4 0,9 0,4 0,2 1,7 -1,5 93 0,0 534 0,7 2,8 --- ---
23.01.2020 2,2 0,1 0,5 0,4 3,5 -1,5 93 0,0 721 0,9 3,5 --- 2,0
22.01.2020 2,6 0,0 -3,4 -3,1 -1,4 -6,2 99 0,0 598 0,8 3,4 --- 1,1
21.01.2020 3,3 0,5 -3,0 -1,5 5,0 -5,2 92 0,1 1149 0,5 3,7 --- 3,1
20.01.2020 4,4 2,2 -0,6 0,6 5,0 -2,3 94 0,0 1001 0,6 3,6 --- 3,0
19.01.2020 4,9 3,2 2,3 2,5 4,7 0,3 91 0,0 698 0,9 6,2 --- 1,5
18.01.2020 5,5 4,1 3,6 4,2 7,4 1,3 87 0,2 706 2,5 11,5 --- 1,6
17.01.2020 5,7 4,4 5,7 6,7 10,2 2,7 84 0,0 672 1,8 8,3 --- 2,1
16.01.2020 6,0 5,4 7,9 9,2 14,0 5,5 79 0,0 834 1,4 6,8 --- 1,9
15.01.2020 5,6 5,0 9,0 10,1 12,6 5,9 64 0,0 982 2,7 7,5 --- 3,1
14.01.2020 5,1 4,3 7,7 8,4 11,3 4,8 68 0,0 563 3,6 10,3 --- 1,3
13.01.2020 4,8 3,7 5,0 5,2 7,2 3,8 93 0,1 393 1,7 5,9 --- 0,3
12.01.2020 4,8 2,8 2,0 2,3 4,6 -0,9 91 0,0 478 2,4 8,9 --- 0,2
11.01.2020 5,8 4,3 2,6 3,1 6,1 0,1 89 0,0 681 1,2 6,2 --- 1,6
10.01.2020 6,1 5,9 7,8 8,2 11,0 5,9 88 2,6 589 3,2 11,4 --- 1,2
09.01.2020 5,2 5,6 9,5 10,0 11,5 7,8 92 1,7 346 2,5 7,2 --- ---
08.01.2020 4,1 3,2 5,4 5,6 7,9 2,1 95 0,8 220 2,1 7,0 --- ---
07.01.2020 3,8 2,5 2,6 2,8 6,6 -2,1 97 0,1 483 1,4 4,9 --- 0,7
06.01.2020 4,2 2,6 0,3 0,3 4,3 -1,9 99 0,1 764 0,7 2,9 --- 1,9
05.01.2020 4,1 3,4 4,8 4,9 6,6 3,9 95 1,8 507 1,2 6,8 --- 0,9
04.01.2020 3,8 3,1 4,1 4,6 8,4 1,6 88 0,0 327 3,2 9,8 --- ---
03.01.2020 2,7 2,1 5,9 6,4 8,5 2,9 90 0,3 289 3,9 10,5 --- ---
02.01.2020 2,2 0,0 -0,8 -0,9 2,9 -3,7 99 0,1 361 0,6 3,7 --- 0,3
01.01.2020 2,4 0,1 -1,5 -0,2 4,2 -3,2 95 0,1 694 0,7 4,0 --- 1,5

Mittelwerte (Temperaturen, Strahlung, rel. Feuchte, Wind), Summe (Regen) für 2020
12,1 11,7 11,8 11,8 72 350 3.837 1,8

Landesbetrieb Landwirtschaft Hessen 2009

      Werte bis 5 Uhr SommerzeitCSV-Datei: Gross Umstadt20.csvDiagramm: Gross Umstadt